createdAt,value
2022-10-11T00:02:26.391Z,90.63
2022-10-11T00:04:56.813Z,90.53
2022-10-11T00:07:26.820Z,90.61
2022-10-11T00:09:59.484Z,90.82
2022-10-11T00:12:29.178Z,90.77
2022-10-11T00:14:58.743Z,91.01
2022-10-11T00:17:28.590Z,91.10
2022-10-11T00:19:58.241Z,90.97
2022-10-11T00:22:27.791Z,90.92
2022-10-11T00:25:00.128Z,91.19
2022-10-11T00:27:29.959Z,91.06
2022-10-11T00:30:00.079Z,91.18
2022-10-11T00:32:30.077Z,91.27
2022-10-11T00:35:04.660Z,91.21
2022-10-11T00:37:34.385Z,91.42
2022-10-11T00:40:07.370Z,91.54
2022-10-11T00:42:36.977Z,91.29
2022-10-11T00:45:36.631Z,91.42
2022-10-11T00:48:09.439Z,91.76
2022-10-11T00:50:39.663Z,91.91
2022-10-11T00:53:12.664Z,91.62
2022-10-11T00:55:48.435Z,91.63
2022-10-11T00:58:18.470Z,92.00
2022-10-11T01:00:48.132Z,91.95
2022-10-11T01:03:18.895Z,91.83
2022-10-11T01:05:48.879Z,91.87
2022-10-11T01:08:18.673Z,91.97
2022-10-11T01:10:51.368Z,91.85
2022-10-11T01:13:31.649Z,92.25
2022-10-11T01:16:06.336Z,92.03
2022-10-11T01:18:41.288Z,92.13
2022-10-11T01:21:23.936Z,92.13
2022-10-11T01:24:25.349Z,92.31
2022-10-11T01:27:25.553Z,92.13
2022-10-11T01:30:05.259Z,92.04
2022-10-11T01:32:41.864Z,92.14
2022-10-11T01:35:15.618Z,92.38
2022-10-11T01:37:47.649Z,92.34
2022-10-11T01:40:21.876Z,92.20
2022-10-11T01:42:51.217Z,92.45
2022-10-11T01:45:21.875Z,92.28
2022-10-11T01:48:04.215Z,92.25
2022-10-11T01:50:38.827Z,92.19
2022-10-11T01:53:18.670Z,92.46
2022-10-11T01:55:53.765Z,92.42
2022-10-11T01:58:31.924Z,92.29
2022-10-11T02:01:07.635Z,92.37
2022-10-11T02:03:46.614Z,92.45
2022-10-11T02:06:20.436Z,92.62
2022-10-11T02:08:56.466Z,92.72
2022-10-11T02:11:28.506Z,92.44
2022-10-11T02:14:01.517Z,92.72
2022-10-11T02:16:34.509Z,92.64
2022-10-11T02:19:07.957Z,92.89
2022-10-11T02:21:39.513Z,92.85
2022-10-11T02:24:14.426Z,93.16
2022-10-11T02:26:45.511Z,92.96
2022-10-11T02:29:16.905Z,93.09
2022-10-11T02:31:47.012Z,93.06
2022-10-11T02:34:21.218Z,93.16
2022-10-11T02:36:54.148Z,93.03
2022-10-11T02:39:27.681Z,93.26
2022-10-11T02:41:58.912Z,93.34
2022-10-11T02:44:32.371Z,93.04
2022-10-11T02:47:02.253Z,93.14
2022-10-11T02:49:35.350Z,93.25
2022-10-11T02:52:07.534Z,92.99
2022-10-11T02:54:37.291Z,93.00
2022-10-11T02:57:06.903Z,93.31
2022-10-11T02:59:36.544Z,93.38
2022-10-11T03:02:06.479Z,93.36
2022-10-11T03:04:38.928Z,93.60
2022-10-11T03:07:08.550Z,93.51
2022-10-11T03:09:38.189Z,93.52
2022-10-11T03:12:08.188Z,93.70
2022-10-11T03:14:37.755Z,93.70
2022-10-11T03:17:31.040Z,93.47
2022-10-11T03:20:00.183Z,93.41
2022-10-11T03:22:29.778Z,93.47
2022-10-11T03:25:03.607Z,93.73
2022-10-11T03:27:33.954Z,93.62
2022-10-11T03:30:03.714Z,93.70
2022-10-11T03:32:33.576Z,93.74
2022-10-11T03:35:06.187Z,93.65
2022-10-11T03:37:37.541Z,93.64
2022-10-11T03:40:08.876Z,93.45
2022-10-11T03:42:38.741Z,93.70
2022-10-11T03:45:11.511Z,93.63
2022-10-11T03:47:42.345Z,93.67
2022-10-11T03:50:14.839Z,93.83
2022-10-11T03:52:44.417Z,93.81
2022-10-11T03:55:13.997Z,93.75
2022-10-11T03:57:43.825Z,93.72
2022-10-11T04:00:14.228Z,93.62
2022-10-11T04:02:43.775Z,93.44
2022-10-11T04:05:16.075Z,93.53
2022-10-11T04:07:45.656Z,93.23
2022-10-11T04:10:15.341Z,93.17
2022-10-11T04:12:44.898Z,93.21
2022-10-11T04:15:15.257Z,93.17
2022-10-11T04:17:45.055Z,93.06
2022-10-11T04:20:18.531Z,93.13
2022-10-11T04:22:48.180Z,92.91
2022-10-11T04:25:18.097Z,92.69
2022-10-11T04:27:47.939Z,92.76
2022-10-11T04:30:18.089Z,92.45
2022-10-11T04:32:47.832Z,92.33
2022-10-11T04:35:20.408Z,92.27
2022-10-11T04:37:49.979Z,92.15
2022-10-11T04:40:19.787Z,91.99
2022-10-11T04:42:50.677Z,91.70
2022-10-11T04:45:20.291Z,91.66
2022-10-11T04:47:50.363Z,91.49
2022-10-11T04:50:23.405Z,91.33
2022-10-11T04:52:53.017Z,91.13
2022-10-11T04:55:24.092Z,90.90
2022-10-11T04:57:53.919Z,90.83
2022-10-11T05:00:23.810Z,90.44
2022-10-11T05:02:53.975Z,90.61
2022-10-11T05:05:26.445Z,90.47
2022-10-11T05:07:56.049Z,90.33
2022-10-11T05:10:25.674Z,90.11
2022-10-11T05:12:55.554Z,89.90
2022-10-11T05:15:25.650Z,89.93
2022-10-11T05:17:55.457Z,90.00
2022-10-11T05:20:27.923Z,89.87
2022-10-11T05:22:57.915Z,89.99
2022-10-11T05:25:27.539Z,89.84
2022-10-11T05:27:57.452Z,89.64
2022-10-11T05:30:29.283Z,89.87
2022-10-11T05:32:58.975Z,89.69
2022-10-11T05:35:31.423Z,89.74
2022-10-11T05:38:01.041Z,89.84
2022-10-11T05:40:30.927Z,90.07
2022-10-11T05:43:00.486Z,90.38
2022-10-11T05:45:30.075Z,90.32
2022-10-11T05:47:59.695Z,90.51
2022-10-11T05:50:31.890Z,90.62
2022-10-11T05:53:01.761Z,90.47
2022-10-11T05:55:31.693Z,90.54
2022-10-11T05:58:01.321Z,90.64
2022-10-11T06:00:31.324Z,90.85
2022-10-11T06:03:03.885Z,90.91
2022-10-11T06:05:37.523Z,90.98
2022-10-11T06:08:08.843Z,91.17
2022-10-11T06:10:38.895Z,91.23
2022-10-11T06:13:09.597Z,91.23
2022-10-11T06:15:41.797Z,91.14
2022-10-11T06:18:11.338Z,91.11
2022-10-11T06:20:44.119Z,91.27
2022-10-11T06:23:13.977Z,91.07
2022-10-11T06:25:46.236Z,91.36
2022-10-11T06:28:15.964Z,91.32
2022-10-11T06:30:45.654Z,91.27
2022-10-11T06:33:17.886Z,91.59
2022-10-11T06:35:50.222Z,91.83
2022-10-11T06:38:20.036Z,91.42
2022-10-11T06:40:49.722Z,90.89
2022-10-11T06:43:21.174Z,90.34
2022-10-11T06:45:51.112Z,89.29
2022-10-11T06:48:20.720Z,87.99
2022-10-11T06:50:59.859Z,86.52
2022-10-11T06:53:30.737Z,84.71
2022-10-11T06:56:07.924Z,83.05
2022-10-11T06:58:38.184Z,81.49
2022-10-11T07:01:11.029Z,79.42
2022-10-11T07:03:40.962Z,78.08
2022-10-11T07:06:15.825Z,76.10
2022-10-11T07:08:45.710Z,74.21
2022-10-11T07:11:17.417Z,71.91
2022-10-11T07:13:51.797Z,69.87
2022-10-11T07:16:22.209Z,68.33
2022-10-11T07:18:59.865Z,66.94
2022-10-11T07:21:33.832Z,65.86
2022-10-11T07:24:04.270Z,64.70
2022-10-11T07:26:38.610Z,63.30
2022-10-11T07:29:08.832Z,62.22
2022-10-11T07:31:39.817Z,60.08
2022-10-11T07:34:10.071Z,59.55
2022-10-11T07:36:42.322Z,57.95
2022-10-11T07:39:12.221Z,57.22
2022-10-11T07:41:45.878Z,56.79
2022-10-11T07:44:15.644Z,56.61
2022-10-11T07:46:47.345Z,56.40
2022-10-11T07:49:17.197Z,54.75
2022-10-11T07:51:49.670Z,53.50
2022-10-11T07:54:22.164Z,52.62
2022-10-11T07:56:52.641Z,52.33
2022-10-11T07:59:22.593Z,52.76
2022-10-11T08:01:52.215Z,52.36
2022-10-11T08:04:22.243Z,52.58
2022-10-11T08:06:54.670Z,54.13
2022-10-11T08:09:24.253Z,55.28
2022-10-11T08:11:53.915Z,56.40
2022-10-11T08:14:23.699Z,56.92
2022-10-11T08:16:53.459Z,57.85
2022-10-11T08:19:23.101Z,58.87
2022-10-11T08:21:55.495Z,59.11
2022-10-11T08:24:26.614Z,59.59
2022-10-11T08:26:56.194Z,60.22
2022-10-11T08:29:25.768Z,60.71
2022-10-11T08:31:55.481Z,61.37
2022-10-11T08:34:25.101Z,61.97
2022-10-11T08:36:57.397Z,61.92
2022-10-11T08:39:27.187Z,62.13
2022-10-11T08:41:58.785Z,62.83
2022-10-11T08:45:05.409Z,63.37
2022-10-11T08:47:31.113Z,63.45
2022-10-11T08:50:02.204Z,63.49
2022-10-11T08:52:42.526Z,63.92
2022-10-11T08:55:21.871Z,64.11
2022-10-11T08:57:55.284Z,63.88
2022-10-11T09:00:26.803Z,64.13
2022-10-11T09:03:08.539Z,64.31
2022-10-11T09:05:45.072Z,64.46
2022-10-11T09:08:24.174Z,64.69
2022-10-11T09:11:00.828Z,65.59
2022-10-11T09:13:47.969Z,66.06
2022-10-11T09:16:25.274Z,66.42
2022-10-11T09:19:14.258Z,66.81
2022-10-11T09:21:46.493Z,66.76
2022-10-11T09:24:28.050Z,67.36
2022-10-11T09:26:59.622Z,66.87
2022-10-11T09:29:43.467Z,67.19
2022-10-11T09:32:17.552Z,67.44
2022-10-11T09:34:46.972Z,67.37
2022-10-11T09:37:23.752Z,67.50
2022-10-11T09:39:58.916Z,67.86
2022-10-11T09:42:28.473Z,67.88
2022-10-11T09:45:00.090Z,67.90
2022-10-11T09:47:31.700Z,67.96
2022-10-11T09:50:03.761Z,67.84
2022-10-11T09:52:34.300Z,67.69
2022-10-11T09:55:06.912Z,67.33
2022-10-11T09:57:39.796Z,67.31
2022-10-11T10:00:22.121Z,67.68
2022-10-11T10:02:53.357Z,67.58
2022-10-11T10:05:31.477Z,67.63
2022-10-11T10:08:23.844Z,67.62
2022-10-11T10:11:04.684Z,67.72
2022-10-11T10:13:43.843Z,67.38
2022-10-11T10:16:24.495Z,67.02
2022-10-11T10:18:56.568Z,66.89
2022-10-11T10:21:29.896Z,66.67
2022-10-11T10:24:03.137Z,66.00
2022-10-11T10:26:36.352Z,65.70
2022-10-11T10:29:20.252Z,65.74
2022-10-11T10:34:57.006Z,65.16
2022-10-11T10:37:30.250Z,65.11
2022-10-11T10:40:03.503Z,65.13
2022-10-11T10:42:36.037Z,64.56
2022-10-11T10:45:09.773Z,64.65
2022-10-11T10:48:03.431Z,64.30
2022-10-11T10:50:35.708Z,64.20
2022-10-11T10:53:16.790Z,64.28
2022-10-11T10:55:49.806Z,64.17
2022-10-11T10:58:50.087Z,64.31
2022-10-11T11:01:23.855Z,64.00
2022-10-11T11:03:59.269Z,63.89
2022-10-11T11:06:36.570Z,63.73
2022-10-11T11:09:20.580Z,63.34
2022-10-11T11:11:59.570Z,63.50
2022-10-11T11:14:41.371Z,63.52
2022-10-11T11:17:19.805Z,63.61
2022-10-11T11:20:00.355Z,63.69
2022-10-11T11:22:39.823Z,63.92
2022-10-11T11:25:20.419Z,64.19
2022-10-11T11:27:59.536Z,64.87
2022-10-11T11:30:36.763Z,65.15
2022-10-11T11:33:14.890Z,65.49
2022-10-11T11:35:46.957Z,66.39
2022-10-11T11:38:19.800Z,66.41
2022-10-11T11:40:52.571Z,66.39
2022-10-11T11:43:24.931Z,66.72
2022-10-11T11:46:00.618Z,67.10
2022-10-11T11:48:30.184Z,67.36
2022-10-11T11:51:04.898Z,67.27
2022-10-11T11:53:47.180Z,67.52
2022-10-11T11:56:27.256Z,67.67
2022-10-11T11:59:05.755Z,67.59
2022-10-11T12:01:43.044Z,68.05
2022-10-11T12:04:23.331Z,67.76
2022-10-11T12:07:17.293Z,67.84
2022-10-11T12:09:51.237Z,67.76
2022-10-11T12:12:33.879Z,67.91
2022-10-11T12:15:18.973Z,67.96
2022-10-11T12:18:07.745Z,67.35
2022-10-11T12:20:41.317Z,67.36
2022-10-11T12:23:52.595Z,67.37
2022-10-11T12:26:41.120Z,67.03
2022-10-11T12:29:29.351Z,66.96
2022-10-11T12:32:28.880Z,66.63
2022-10-11T12:35:42.539Z,66.12
2022-10-11T12:38:23.917Z,65.40
2022-10-11T12:40:56.287Z,65.34
2022-10-11T12:43:55.577Z,64.78
2022-10-11T12:46:58.095Z,64.62
2022-10-11T12:49:40.539Z,64.36
2022-10-11T12:52:27.171Z,64.01
2022-10-11T12:55:17.313Z,63.60
2022-10-11T12:58:14.863Z,63.61
2022-10-11T13:00:46.818Z,63.26
2022-10-11T13:03:32.752Z,63.19
2022-10-11T13:06:03.111Z,62.96
2022-10-11T13:08:36.384Z,62.50
2022-10-11T13:11:12.145Z,62.53
2022-10-11T13:13:44.653Z,62.55
2022-10-11T13:16:17.967Z,62.28
2022-10-11T13:18:49.387Z,62.30
2022-10-11T13:21:23.195Z,61.97
2022-10-11T13:23:57.872Z,61.39
2022-10-11T13:26:31.451Z,61.05
2022-10-11T13:29:02.842Z,60.62
2022-10-11T13:31:33.082Z,60.49
2022-10-11T13:34:02.653Z,59.67
2022-10-11T13:36:32.387Z,59.74
2022-10-11T13:39:03.685Z,59.07
2022-10-11T13:41:36.718Z,58.32
2022-10-11T13:44:07.372Z,58.04
2022-10-11T13:46:41.677Z,57.88
2022-10-11T13:49:31.513Z,58.16
2022-10-11T13:52:02.584Z,58.17
2022-10-11T13:54:57.472Z,57.66
2022-10-11T13:57:37.570Z,57.88
2022-10-11T14:00:29.448Z,57.65
2022-10-11T14:03:02.088Z,57.68
2022-10-11T14:05:34.475Z,57.45
2022-10-11T14:08:06.738Z,57.06
2022-10-11T14:10:36.621Z,57.07
2022-10-11T14:13:23.098Z,56.95
2022-10-11T14:16:02.949Z,56.70
2022-10-11T14:18:41.481Z,56.53
2022-10-11T14:21:34.648Z,56.24
2022-10-11T14:24:07.645Z,56.22
2022-10-11T14:26:39.346Z,56.21
2022-10-11T14:29:15.962Z,56.27
2022-10-11T14:31:45.583Z,56.07
2022-10-11T14:34:21.077Z,56.04
2022-10-11T14:36:51.392Z,55.71
2022-10-11T14:39:23.634Z,55.68
2022-10-11T14:41:53.833Z,55.38
2022-10-11T14:44:26.556Z,55.16
2022-10-11T14:46:56.508Z,55.00
2022-10-11T14:49:30.146Z,54.60
2022-10-11T14:52:00.880Z,54.71
2022-10-11T14:54:32.480Z,55.03
2022-10-11T14:57:05.109Z,54.98
2022-10-11T14:59:39.237Z,54.80
2022-10-11T15:02:11.316Z,54.98
2022-10-11T15:04:41.008Z,54.91
2022-10-11T15:07:10.717Z,54.84
2022-10-11T15:09:40.337Z,55.28
2022-10-11T15:12:10.007Z,55.39
2022-10-11T15:14:42.174Z,56.05
2022-10-11T15:17:13.650Z,56.26
2022-10-11T15:19:43.551Z,57.00
2022-10-11T15:22:13.115Z,57.28
2022-10-11T15:24:42.711Z,57.35
2022-10-11T15:27:12.281Z,57.98
2022-10-11T15:29:44.439Z,58.10
2022-10-11T15:32:14.030Z,58.13
2022-10-11T15:34:43.606Z,58.00
2022-10-11T15:37:13.247Z,57.73
2022-10-11T15:39:42.987Z,57.69
2022-10-11T15:42:12.645Z,58.17
2022-10-11T15:44:44.876Z,58.20
2022-10-11T15:47:14.672Z,58.38
2022-10-11T15:49:44.214Z,58.48
2022-10-11T15:52:13.785Z,58.81
2022-10-11T15:54:43.331Z,58.85
2022-10-11T15:57:12.980Z,59.25
2022-10-11T15:59:45.384Z,59.30
2022-10-11T16:02:16.744Z,59.71
2022-10-11T16:04:46.680Z,59.75
2022-10-11T16:07:16.539Z,60.14
2022-10-11T16:09:46.127Z,60.39
2022-10-11T16:12:15.687Z,60.67
2022-10-11T16:14:48.045Z,61.13
2022-10-11T16:17:17.560Z,61.33
2022-10-11T16:19:47.114Z,61.78
2022-10-11T16:22:16.738Z,62.25
2022-10-11T16:24:46.466Z,62.70
2022-10-11T16:27:18.880Z,63.13
2022-10-11T16:29:51.307Z,63.63
2022-10-11T16:32:21.090Z,64.30
2022-10-11T16:34:50.858Z,64.71
2022-10-11T16:37:20.496Z,65.31
2022-10-11T16:39:50.073Z,65.45
2022-10-11T16:42:19.668Z,65.88
2022-10-11T16:44:51.845Z,66.09
2022-10-11T16:47:21.919Z,66.43
2022-10-11T16:49:51.920Z,66.90
2022-10-11T16:52:21.639Z,67.57
2022-10-11T16:54:52.604Z,68.31
2022-10-11T16:57:22.584Z,69.01
2022-10-11T16:59:54.802Z,69.51
2022-10-11T17:02:32.086Z,69.74
2022-10-11T17:05:02.376Z,70.05
2022-10-11T17:07:32.143Z,70.21
2022-10-11T17:10:01.744Z,70.31
2022-10-11T17:12:32.004Z,70.54
2022-10-11T17:15:04.168Z,70.93
2022-10-11T17:17:33.759Z,71.18
2022-10-11T17:20:04.301Z,71.55
2022-10-11T17:22:33.847Z,72.06
2022-10-11T17:25:03.727Z,72.46
2022-10-11T17:27:33.262Z,72.96
2022-10-11T17:30:05.439Z,73.21
2022-10-11T17:32:35.033Z,73.67
2022-10-11T17:35:05.023Z,73.89
2022-10-11T17:37:34.639Z,74.34
2022-10-11T17:40:04.243Z,74.66
2022-10-11T17:42:34.018Z,74.69
2022-10-11T17:45:06.543Z,75.32
2022-10-11T17:47:36.312Z,75.48
2022-10-11T17:50:06.049Z,75.96
2022-10-11T17:52:35.682Z,76.21
2022-10-11T17:55:05.253Z,76.33
2022-10-11T17:57:34.982Z,76.50
2022-10-11T18:00:08.786Z,76.60
2022-10-11T18:02:40.164Z,76.92
2022-10-11T18:05:14.276Z,77.34
2022-10-11T18:07:43.923Z,77.08
2022-10-11T18:10:13.788Z,77.15
2022-10-11T18:12:43.658Z,77.52
2022-10-11T18:15:16.026Z,77.92
2022-10-11T18:17:47.332Z,78.19
2022-10-11T18:20:17.116Z,78.29
2022-10-11T18:22:46.913Z,78.37
2022-10-11T18:25:16.802Z,78.62
2022-10-11T18:27:46.434Z,78.62
2022-10-11T18:30:18.702Z,78.29
2022-10-11T18:32:48.277Z,78.27
2022-10-11T18:35:17.974Z,78.17
2022-10-11T18:37:47.647Z,78.25
2022-10-11T18:40:17.201Z,78.24
2022-10-11T18:42:46.746Z,78.41
2022-10-11T18:45:19.117Z,78.35
2022-10-11T18:47:48.943Z,78.50
2022-10-11T18:50:18.597Z,78.48
2022-10-11T18:52:48.640Z,78.73
2022-10-11T18:55:18.909Z,78.98
2022-10-11T18:57:48.464Z,78.88
2022-10-11T19:00:40.214Z,79.10
2022-10-11T19:03:10.874Z,79.13
2022-10-11T19:05:42.053Z,79.00
2022-10-11T19:08:11.675Z,78.95
2022-10-11T19:10:41.905Z,78.87
2022-10-11T19:13:11.513Z,78.59
2022-10-11T19:15:44.063Z,78.20
2022-10-11T19:18:18.277Z,78.26
2022-10-11T19:20:52.243Z,77.80
2022-10-11T19:23:23.703Z,77.43
2022-10-11T19:25:53.487Z,77.59
2022-10-11T19:28:23.875Z,77.52
2022-10-11T19:31:04.808Z,77.27
2022-10-11T19:33:37.005Z,77.42
2022-10-11T19:36:11.045Z,77.16
2022-10-11T19:38:41.971Z,77.07
2022-10-11T19:41:11.786Z,76.82
2022-10-11T19:43:44.828Z,76.80
2022-10-11T19:46:38.001Z,76.75
2022-10-11T19:49:11.987Z,76.67
2022-10-11T19:51:41.615Z,76.51
2022-10-11T19:54:14.185Z,76.64
2022-10-11T19:56:45.199Z,76.79
2022-10-11T19:59:15.521Z,76.67
2022-10-11T20:01:52.242Z,76.71
2022-10-11T20:04:50.958Z,76.61
2022-10-11T20:07:15.200Z,76.61
2022-10-11T20:09:44.781Z,76.50
2022-10-11T20:12:14.958Z,76.27
2022-10-11T20:14:44.528Z,76.25
2022-10-11T20:17:16.690Z,76.19
2022-10-11T20:19:46.472Z,76.05
2022-10-11T20:22:16.536Z,76.14
2022-10-11T20:24:46.440Z,76.17
2022-10-11T20:27:16.037Z,76.21
2022-10-11T20:29:46.120Z,75.96
2022-10-11T20:32:18.804Z,76.13
2022-10-11T20:34:48.384Z,75.98
2022-10-11T20:37:18.004Z,76.03
2022-10-11T20:39:47.555Z,76.42
2022-10-11T20:42:17.149Z,76.45
2022-10-11T20:44:48.191Z,76.53
2022-10-11T20:47:20.438Z,76.35
2022-10-11T20:49:50.242Z,76.54
2022-10-11T20:52:19.779Z,76.57
2022-10-11T20:54:49.397Z,76.71
2022-10-11T20:57:18.960Z,76.96
2022-10-11T20:59:48.538Z,76.91
2022-10-11T21:02:20.852Z,76.85
2022-10-11T21:04:51.404Z,77.09
2022-10-11T21:07:21.118Z,76.72
2022-10-11T21:09:50.701Z,76.99
2022-10-11T21:12:20.326Z,76.88
2022-10-11T21:14:50.108Z,76.97
2022-10-11T21:17:22.340Z,76.99
2022-10-11T21:19:52.120Z,77.03
2022-10-11T21:22:21.740Z,77.02
2022-10-11T21:24:51.252Z,77.05
2022-10-11T21:27:20.839Z,77.05
2022-10-11T21:29:50.388Z,76.94
2022-10-11T21:32:22.813Z,77.18
2022-10-11T21:34:52.628Z,76.92
2022-10-11T21:37:22.246Z,77.09
2022-10-11T21:39:51.786Z,77.02
2022-10-11T21:42:23.787Z,77.09
2022-10-11T21:44:55.476Z,77.18
2022-10-11T21:47:27.676Z,77.33
2022-10-11T21:49:57.276Z,77.28
2022-10-11T21:52:27.332Z,77.30
2022-10-11T21:54:56.875Z,77.39
2022-10-11T21:57:26.520Z,77.41
2022-10-11T21:59:56.064Z,77.48
2022-10-11T22:02:28.456Z,77.56
2022-10-11T22:04:58.027Z,77.54
2022-10-11T22:07:27.667Z,77.59
2022-10-11T22:09:57.282Z,77.67
2022-10-11T22:12:26.877Z,77.64
2022-10-11T22:14:56.482Z,77.57
2022-10-11T22:17:28.924Z,77.77
2022-10-11T22:19:58.577Z,77.85
2022-10-11T22:22:28.162Z,77.77
2022-10-11T22:24:57.713Z,77.88
2022-10-11T22:27:27.298Z,77.90
2022-10-11T22:29:56.849Z,77.96
2022-10-11T22:32:29.056Z,77.99
2022-10-11T22:34:58.645Z,78.21
2022-10-11T22:37:28.282Z,78.22
2022-10-11T22:39:57.867Z,78.17
2022-10-11T22:42:27.843Z,78.21
2022-10-11T22:44:57.520Z,78.25
2022-10-11T22:47:29.817Z,78.52
2022-10-11T22:49:59.433Z,78.72
2022-10-11T22:52:29.331Z,78.83
2022-10-11T22:54:59.394Z,78.77
2022-10-11T22:57:29.036Z,79.30
2022-10-11T22:59:58.636Z,79.60
2022-10-11T23:02:31.164Z,79.87
2022-10-11T23:05:00.725Z,79.98
2022-10-11T23:07:30.337Z,80.33
2022-10-11T23:10:00.025Z,80.91
2022-10-11T23:12:29.627Z,81.12
2022-10-11T23:14:59.209Z,81.37
2022-10-11T23:17:31.385Z,81.68
2022-10-11T23:20:01.203Z,81.86
2022-10-11T23:22:30.890Z,81.89
2022-10-11T23:25:00.902Z,82.14
2022-10-11T23:27:31.442Z,82.00
2022-10-11T23:30:01.474Z,82.29
2022-10-11T23:32:34.267Z,82.42
2022-10-11T23:35:03.851Z,82.57
2022-10-11T23:37:33.399Z,82.67
2022-10-11T23:40:02.950Z,82.78
2022-10-11T23:42:32.536Z,83.01
2022-10-11T23:45:02.155Z,83.13
2022-10-11T23:47:35.001Z,83.26
2022-10-11T23:50:04.846Z,83.68
2022-10-11T23:52:34.483Z,83.73
2022-10-11T23:55:04.223Z,84.03
2022-10-11T23:57:34.073Z,84.08
